Caldas, Brazil
Current Conditions -  °F | °C
As of 8:00 PM on Thursday 18 Dec 2014 (Local Time) from SBKP Reporting Station
Few Clouds Few Clouds  
Wind Chill: 86°   Ceiling: Unl
Heat Index: 86°   Visibility: 6mi
Dew Point: 57°   Wind: 7mph
Humidity: 37%   Direction: 220°SW
Pressure: 29.83"   Gusts: NA
Location:  21.92°S, 46.39°W
Report Text: SBKP 182200Z 22006KT 9999 FEW040 30/14 Q1010
Loading
Personal Weather Stations






























Interactive Weather Map New forecast layout! Learn more

10-Day Weather Forecast

Advertisements
Track Severe Weather on mobile